createdAt,value
2019-03-19T00:00:40.881Z,1011.4
2019-03-19T00:01:43.018Z,1011.4
2019-03-19T00:02:45.216Z,1011.4
2019-03-19T00:03:47.347Z,1011.5
2019-03-19T00:04:49.472Z,1011.4
2019-03-19T00:05:51.617Z,1011.4
2019-03-19T00:06:54.093Z,1011.5
2019-03-19T00:07:56.603Z,1011.5
2019-03-19T00:08:59.013Z,1011.5
2019-03-19T00:10:01.203Z,1011.5
2019-03-19T00:11:03.678Z,1011.5
2019-03-19T00:12:06.126Z,1011.5
2019-03-19T00:13:08.249Z,1011.6
2019-03-19T00:14:10.417Z,1011.6
2019-03-19T00:15:12.542Z,1011.6
2019-03-19T00:16:14.686Z,1011.7
2019-03-19T00:17:16.855Z,1011.7
2019-03-19T00:18:19.107Z,1011.6
2019-03-19T00:19:22.804Z,1011.6
2019-03-19T00:20:25.334Z,1011.7
2019-03-19T00:21:27.557Z,1011.6
2019-03-19T00:22:30.047Z,1011.6
2019-03-19T00:23:32.157Z,1011.5
2019-03-19T00:24:34.638Z,1011.5
2019-03-19T00:25:36.793Z,1011.6
2019-03-19T00:26:38.885Z,1011.6
2019-03-19T00:27:40.979Z,1011.6
2019-03-19T00:28:43.399Z,1011.6
2019-03-19T00:29:45.812Z,1011.6
2019-03-19T00:30:47.950Z,1011.6
2019-03-19T00:31:50.067Z,1011.6
2019-03-19T00:32:52.562Z,1011.6
2019-03-19T00:33:54.699Z,1011.6
2019-03-19T00:34:56.844Z,1011.6
2019-03-19T00:35:59.202Z,1011.6
2019-03-19T00:37:01.308Z,1011.6
2019-03-19T00:38:03.428Z,1011.6
2019-03-19T00:39:05.502Z,1011.5
2019-03-19T00:40:07.651Z,1011.6
2019-03-19T00:41:09.766Z,1011.6
2019-03-19T00:42:11.890Z,1011.7
2019-03-19T00:43:14.041Z,1011.6
2019-03-19T00:44:16.527Z,1011.6
2019-03-19T00:45:18.617Z,1011.6
2019-03-19T00:46:20.709Z,1011.7
2019-03-19T00:47:22.818Z,1011.7
2019-03-19T00:48:24.908Z,1011.6
2019-03-19T00:49:26.994Z,1011.7
2019-03-19T00:50:29.125Z,1011.7
2019-03-19T00:51:31.301Z,1011.7
2019-03-19T00:52:33.429Z,1011.7
2019-03-19T00:53:35.556Z,1011.7
2019-03-19T00:54:37.650Z,1011.7
2019-03-19T00:55:41.318Z,1011.7
2019-03-19T00:56:43.463Z,1011.7
2019-03-19T00:57:45.583Z,1011.8
2019-03-19T00:58:47.995Z,1011.8
2019-03-19T00:59:50.114Z,1011.8
2019-03-19T01:00:52.555Z,1011.8
2019-03-19T01:01:54.716Z,1011.8
2019-03-19T01:02:56.819Z,1011.8
2019-03-19T01:03:58.935Z,1011.8
2019-03-19T01:05:01.031Z,1011.8
2019-03-19T01:06:03.166Z,1011.8
2019-03-19T01:07:05.290Z,1011.8
2019-03-19T01:08:07.452Z,1011.8
2019-03-19T01:09:09.560Z,1011.8
2019-03-19T01:10:12.068Z,1011.8
2019-03-19T01:11:14.158Z,1011.8
2019-03-19T01:12:16.540Z,1011.8
2019-03-19T01:13:18.665Z,1011.8
2019-03-19T01:14:20.758Z,1011.9
2019-03-19T01:15:22.890Z,1011.9
2019-03-19T01:16:25.001Z,1011.9
2019-03-19T01:17:27.149Z,1012
2019-03-19T01:18:29.280Z,1011.9
2019-03-19T01:19:31.401Z,1011.9
2019-03-19T01:20:33.524Z,1012
2019-03-19T01:21:35.658Z,1012
2019-03-19T01:22:37.779Z,1012
2019-03-19T01:23:39.911Z,1012
2019-03-19T01:24:42.007Z,1012.1
2019-03-19T01:25:55.990Z,1012.2
2019-03-19T01:26:58.962Z,1012.2
2019-03-19T01:28:01.083Z,1012.2
2019-03-19T01:29:03.215Z,1012.2
2019-03-19T01:30:05.328Z,1012.2
2019-03-19T01:31:07.750Z,1012.1
2019-03-19T01:32:09.928Z,1012.1
2019-03-19T01:33:12.085Z,1012.2
2019-03-19T01:34:14.501Z,1012.2
2019-03-19T01:35:16.629Z,1012.2
2019-03-19T01:36:18.757Z,1012.1
2019-03-19T01:37:20.936Z,1012.3
2019-03-19T01:38:23.047Z,1012.3
2019-03-19T01:39:25.496Z,1012.2
2019-03-19T01:40:28.013Z,1012.3
2019-03-19T01:41:30.869Z,1012.3
2019-03-19T01:42:33.032Z,1012.2
2019-03-19T01:43:35.170Z,1012.3
2019-03-19T01:44:37.609Z,1012.3
2019-03-19T01:45:40.134Z,1012.3
2019-03-19T01:46:42.644Z,1012.2
2019-03-19T01:47:45.065Z,1012.3
2019-03-19T01:48:47.596Z,1012.3
2019-03-19T01:49:49.706Z,1012.4
2019-03-19T01:50:51.825Z,1012.5
2019-03-19T01:51:53.945Z,1012.5
2019-03-19T01:52:56.084Z,1012.5
2019-03-19T01:53:58.614Z,1012.5
2019-03-19T01:55:00.738Z,1012.5
2019-03-19T01:56:05.836Z,1012.5
2019-03-19T01:57:07.966Z,1012.5
2019-03-19T01:58:10.107Z,1012.5
2019-03-19T01:59:12.248Z,1012.5
2019-03-19T02:00:14.378Z,1012.5
2019-03-19T02:01:16.520Z,1012.5
2019-03-19T02:02:19.012Z,1012.5
2019-03-19T02:03:21.176Z,1012.5
2019-03-19T02:04:23.354Z,1012.5
2019-03-19T02:05:25.469Z,1012.5
2019-03-19T02:06:27.627Z,1012.5
2019-03-19T02:07:30.031Z,1012.5
2019-03-19T02:08:32.184Z,1012.5
2019-03-19T02:09:34.306Z,1012.5
2019-03-19T02:10:36.714Z,1012.5
2019-03-19T02:11:38.951Z,1012.5
2019-03-19T02:12:41.501Z,1012.5
2019-03-19T02:13:43.633Z,1012.6
2019-03-19T02:14:45.786Z,1012.5
2019-03-19T02:15:47.921Z,1012.6
2019-03-19T02:16:50.039Z,1012.6
2019-03-19T02:17:52.151Z,1012.6
2019-03-19T02:18:54.322Z,1012.6
2019-03-19T02:19:56.430Z,1012.7
2019-03-19T02:20:58.595Z,1012.7
2019-03-19T02:22:00.837Z,1012.7
2019-03-19T02:23:04.976Z,1012.7
2019-03-19T02:24:07.145Z,1012.7
2019-03-19T02:25:09.278Z,1012.7
2019-03-19T02:26:17.176Z,1012.7
2019-03-19T02:27:19.346Z,1012.7
2019-03-19T02:28:21.774Z,1012.8
2019-03-19T02:29:23.909Z,1012.7
2019-03-19T02:30:26.070Z,1012.8
2019-03-19T02:31:28.599Z,1012.8
2019-03-19T02:32:31.430Z,1012.8
2019-03-19T02:33:33.985Z,1012.8
2019-03-19T02:34:36.190Z,1012.8
2019-03-19T02:35:38.744Z,1012.8
2019-03-19T02:36:40.886Z,1012.8
2019-03-19T02:37:43.709Z,1012.8
2019-03-19T02:38:45.986Z,1012.8
2019-03-19T02:39:48.421Z,1012.8
2019-03-19T02:40:50.989Z,1012.8
2019-03-19T02:41:53.168Z,1012.9
2019-03-19T02:42:55.341Z,1012.9
2019-03-19T02:43:57.803Z,1012.9
2019-03-19T02:45:00.014Z,1012.9
2019-03-19T02:46:02.978Z,1012.9
2019-03-19T02:47:05.802Z,1012.9
2019-03-19T02:48:08.486Z,1012.9
2019-03-19T02:49:10.698Z,1013
2019-03-19T02:50:13.824Z,1013
2019-03-19T02:51:16.321Z,1013
2019-03-19T02:52:18.530Z,1013
2019-03-19T02:53:21.350Z,1013
2019-03-19T02:54:23.968Z,1013
2019-03-19T02:55:26.147Z,1013
2019-03-19T02:56:33.765Z,1013
2019-03-19T02:57:36.998Z,1013
2019-03-19T02:58:39.163Z,1013
2019-03-19T02:59:41.880Z,1013
2019-03-19T03:00:44.295Z,1013
2019-03-19T03:01:46.729Z,1013
2019-03-19T03:02:49.191Z,1013
2019-03-19T03:03:51.321Z,1013
2019-03-19T03:04:53.486Z,1013
2019-03-19T03:05:55.616Z,1013
2019-03-19T03:06:57.755Z,1013
2019-03-19T03:07:59.952Z,1013
2019-03-19T03:09:02.079Z,1013
2019-03-19T03:10:04.953Z,1013.1
2019-03-19T03:11:07.755Z,1013.1
2019-03-19T03:12:09.942Z,1013.1
2019-03-19T03:13:12.477Z,1013.2
2019-03-19T03:14:15.298Z,1013.2
2019-03-19T03:15:17.765Z,1013.2
2019-03-19T03:16:20.376Z,1013.2
2019-03-19T03:17:22.861Z,1013.2
2019-03-19T03:18:25.013Z,1013.2
2019-03-19T03:19:27.725Z,1013.2
2019-03-19T03:20:29.888Z,1013.2
2019-03-19T03:21:34.958Z,1013.3
2019-03-19T03:22:37.546Z,1013.3
2019-03-19T03:23:39.784Z,1013.3
2019-03-19T03:24:41.904Z,1013.4
2019-03-19T03:25:44.350Z,1013.4
2019-03-19T03:26:49.023Z,1013.5
2019-03-19T03:27:51.468Z,1013.4
2019-03-19T03:28:53.966Z,1013.4
2019-03-19T03:29:56.174Z,1013.4
2019-03-19T03:30:58.333Z,1013.4
2019-03-19T03:32:00.850Z,1013.4
2019-03-19T03:33:03.648Z,1013.5
2019-03-19T03:34:06.441Z,1013.5
2019-03-19T03:35:09.489Z,1013.5
2019-03-19T03:36:12.376Z,1013.5
2019-03-19T03:37:14.790Z,1013.5
2019-03-19T03:38:17.356Z,1013.5
2019-03-19T03:39:20.219Z,1013.5
2019-03-19T03:40:23.195Z,1013.6
2019-03-19T03:41:25.418Z,1013.6
2019-03-19T03:42:28.182Z,1013.6
2019-03-19T03:43:30.657Z,1013.6
2019-03-19T03:44:32.817Z,1013.7
2019-03-19T03:45:34.973Z,1013.6
2019-03-19T03:46:37.813Z,1013.7
2019-03-19T03:47:40.329Z,1013.7
2019-03-19T03:48:42.754Z,1013.7
2019-03-19T03:49:45.273Z,1013.7
2019-03-19T03:50:47.429Z,1013.8
2019-03-19T03:51:49.630Z,1013.8
2019-03-19T03:52:52.045Z,1013.7
2019-03-19T03:53:54.508Z,1013.8
2019-03-19T03:54:57.042Z,1013.8
2019-03-19T03:55:59.929Z,1013.7
2019-03-19T03:57:03.361Z,1013.8
2019-03-19T03:58:06.480Z,1013.8
2019-03-19T03:59:08.595Z,1013.8
2019-03-19T04:00:11.054Z,1013.8
2019-03-19T04:01:13.454Z,1013.8
2019-03-19T04:02:15.900Z,1013.9
2019-03-19T04:03:18.051Z,1013.8
2019-03-19T04:04:20.789Z,1013.9
2019-03-19T04:05:23.150Z,1013.9
2019-03-19T04:06:25.575Z,1013.9
2019-03-19T04:07:27.991Z,1013.9
2019-03-19T04:08:30.558Z,1013.9
2019-03-19T04:09:32.702Z,1014
2019-03-19T04:10:35.213Z,1014
2019-03-19T04:11:37.397Z,1014
2019-03-19T04:12:39.574Z,1014.1
2019-03-19T04:13:41.770Z,1014
2019-03-19T04:14:47.173Z,1014
2019-03-19T04:15:49.717Z,1014.1
2019-03-19T04:16:52.197Z,1014
2019-03-19T04:17:55.027Z,1014
2019-03-19T04:18:57.904Z,1014.1
2019-03-19T04:20:00.023Z,1014.1
2019-03-19T04:21:02.489Z,1014.1
2019-03-19T04:22:04.607Z,1014.1
2019-03-19T04:23:07.137Z,1014.1
2019-03-19T04:24:09.369Z,1014.1
2019-03-19T04:25:11.574Z,1014.1
2019-03-19T04:26:14.381Z,1014.2
2019-03-19T04:27:17.086Z,1014.1
2019-03-19T04:28:20.058Z,1014.1
2019-03-19T04:29:22.274Z,1014.1
2019-03-19T04:30:24.814Z,1014.1
2019-03-19T04:31:27.359Z,1014.1
2019-03-19T04:32:30.247Z,1014.1
2019-03-19T04:33:32.388Z,1014.1
2019-03-19T04:34:34.500Z,1014.1
2019-03-19T04:35:36.643Z,1014.2
2019-03-19T04:36:38.828Z,1014.1
2019-03-19T04:37:41.340Z,1014.2
2019-03-19T04:38:44.226Z,1014.2
2019-03-19T04:39:46.394Z,1014.2
2019-03-19T04:40:50.019Z,1014.2
2019-03-19T04:41:52.463Z,1014.2
2019-03-19T04:42:55.458Z,1014.2
2019-03-19T04:43:57.948Z,1014.2
2019-03-19T04:45:00.585Z,1014.2
2019-03-19T04:46:02.774Z,1014.2
2019-03-19T04:47:05.186Z,1014.2
2019-03-19T04:48:07.328Z,1014.2
2019-03-19T04:49:09.854Z,1014.2
2019-03-19T04:50:12.011Z,1014.2
2019-03-19T04:51:14.433Z,1014.2
2019-03-19T04:52:16.561Z,1014.3
2019-03-19T04:53:18.824Z,1014.3
2019-03-19T04:54:20.963Z,1014.3
2019-03-19T04:55:23.128Z,1014.3
2019-03-19T04:56:25.248Z,1014.4
2019-03-19T04:57:27.587Z,1014.3
2019-03-19T04:58:29.712Z,1014.4
2019-03-19T04:59:31.824Z,1014.3
2019-03-19T05:00:33.945Z,1014.4
2019-03-19T05:01:36.046Z,1014.4
2019-03-19T05:02:38.179Z,1014.4
2019-03-19T05:03:40.305Z,1014.4
2019-03-19T05:04:42.411Z,1014.4
2019-03-19T05:05:45.104Z,1014.4
2019-03-19T05:06:47.768Z,1014.4
2019-03-19T05:07:49.883Z,1014.4
2019-03-19T05:08:52.011Z,1014.4
2019-03-19T05:09:54.131Z,1014.4
2019-03-19T05:10:56.237Z,1014.4
2019-03-19T05:11:58.914Z,1014.5
2019-03-19T05:13:01.207Z,1014.5
2019-03-19T05:14:03.331Z,1014.5
2019-03-19T05:15:05.483Z,1014.5
2019-03-19T05:16:07.942Z,1014.4
2019-03-19T05:17:10.100Z,1014.5
2019-03-19T05:18:12.215Z,1014.5
2019-03-19T05:19:14.340Z,1014.5
2019-03-19T05:20:16.755Z,1014.5
2019-03-19T05:21:19.344Z,1014.5
2019-03-19T05:22:21.782Z,1014.5
2019-03-19T05:23:23.890Z,1014.5
2019-03-19T05:24:25.997Z,1014.5
2019-03-19T05:25:28.111Z,1014.5
2019-03-19T05:26:30.910Z,1014.5
2019-03-19T05:27:38.026Z,1014.5
2019-03-19T05:28:40.580Z,1014.5
2019-03-19T05:29:42.770Z,1014.5
2019-03-19T05:30:45.181Z,1014.5
2019-03-19T05:31:47.314Z,1014.5
2019-03-19T05:32:49.422Z,1014.5
2019-03-19T05:33:51.553Z,1014.5
2019-03-19T05:34:53.678Z,1014.5
2019-03-19T05:35:55.804Z,1014.6
2019-03-19T05:36:58.523Z,1014.6
2019-03-19T05:38:01.312Z,1014.6
2019-03-19T05:39:03.772Z,1014.6
2019-03-19T05:40:05.873Z,1014.6
2019-03-19T05:41:07.993Z,1014.6
2019-03-19T05:42:10.124Z,1014.6
2019-03-19T05:43:12.555Z,1014.6
2019-03-19T05:44:14.658Z,1014.6
2019-03-19T05:45:16.801Z,1014.7
2019-03-19T05:46:19.866Z,1014.6
2019-03-19T05:47:22.381Z,1014.7
2019-03-19T05:48:24.507Z,1014.7
2019-03-19T05:49:27.015Z,1014.7
2019-03-19T05:50:29.117Z,1014.7
2019-03-19T05:51:31.246Z,1014.7
2019-03-19T05:52:33.685Z,1014.6
2019-03-19T05:53:35.789Z,1014.7
2019-03-19T05:54:37.902Z,1014.7
2019-03-19T05:55:40.027Z,1014.7
2019-03-19T05:56:42.417Z,1014.7
2019-03-19T05:57:50.595Z,1014.6
2019-03-19T05:58:52.825Z,1014.7
2019-03-19T05:59:55.312Z,1014.7
2019-03-19T06:00:57.416Z,1014.7
2019-03-19T06:01:59.575Z,1014.8
2019-03-19T06:03:02.369Z,1014.8
2019-03-19T06:04:04.520Z,1014.8
2019-03-19T06:05:06.651Z,1014.8
2019-03-19T06:06:08.768Z,1014.8
2019-03-19T06:07:10.902Z,1014.9
2019-03-19T06:08:13.281Z,1014.9
2019-03-19T06:09:15.791Z,1014.9
2019-03-19T06:10:17.909Z,1014.9
2019-03-19T06:11:20.025Z,1015
2019-03-19T06:12:22.467Z,1015
2019-03-19T06:13:24.569Z,1015
2019-03-19T06:14:26.964Z,1015
2019-03-19T06:15:29.132Z,1015.1
2019-03-19T06:16:31.245Z,1015.1
2019-03-19T06:17:33.366Z,1015.1
2019-03-19T06:18:36.254Z,1015.1
2019-03-19T06:19:38.657Z,1015.2
2019-03-19T06:20:40.776Z,1015.2
2019-03-19T06:21:42.905Z,1015.2
2019-03-19T06:22:45.030Z,1015.2
2019-03-19T06:23:47.157Z,1015.2
2019-03-19T06:24:49.292Z,1015.2
2019-03-19T06:25:51.401Z,1015.2
2019-03-19T06:26:53.925Z,1015.2
2019-03-19T06:28:01.128Z,1015.3
2019-03-19T06:29:03.248Z,1015.3
2019-03-19T06:30:05.364Z,1015.3
2019-03-19T06:31:07.779Z,1015.3
2019-03-19T06:32:10.223Z,1015.3
2019-03-19T06:33:12.338Z,1015.3
2019-03-19T06:34:14.447Z,1015.4
2019-03-19T06:35:16.582Z,1015.3
2019-03-19T06:36:19.019Z,1015.4
2019-03-19T06:37:21.118Z,1015.4
2019-03-19T06:38:23.260Z,1015.3
2019-03-19T06:39:25.381Z,1015.4
2019-03-19T06:40:27.497Z,1015.4
2019-03-19T06:41:29.892Z,1015.4
2019-03-19T06:42:32.014Z,1015.4
2019-03-19T06:43:34.188Z,1015.5
2019-03-19T06:44:36.584Z,1015.4
2019-03-19T06:45:39.013Z,1015.5
2019-03-19T06:46:41.128Z,1015.5
2019-03-19T06:47:43.236Z,1015.5
2019-03-19T06:48:45.758Z,1015.5
2019-03-19T06:49:47.878Z,1015.5
2019-03-19T06:50:50.269Z,1015.5
2019-03-19T06:51:52.397Z,1015.5
2019-03-19T06:52:54.510Z,1015.5
2019-03-19T06:53:56.635Z,1015.5
2019-03-19T06:54:59.039Z,1015.5
2019-03-19T06:56:01.568Z,1015.6
2019-03-19T06:57:03.977Z,1015.5
2019-03-19T06:58:11.660Z,1015.6
2019-03-19T06:59:14.077Z,1015.6
2019-03-19T07:00:16.242Z,1015.7
2019-03-19T07:01:18.375Z,1015.7
2019-03-19T07:02:20.481Z,1015.7
2019-03-19T07:03:22.906Z,1015.8
2019-03-19T07:04:25.447Z,1015.8
2019-03-19T07:05:27.894Z,1015.7
2019-03-19T07:06:29.994Z,1015.7
2019-03-19T07:07:32.516Z,1015.8
2019-03-19T07:08:34.650Z,1015.8
2019-03-19T07:09:36.762Z,1015.8
2019-03-19T07:10:38.893Z,1015.8
2019-03-19T07:11:41.302Z,1015.8
2019-03-19T07:12:43.422Z,1015.8
2019-03-19T07:13:45.829Z,1015.8
2019-03-19T07:14:47.956Z,1015.8
2019-03-19T07:15:50.072Z,1015.8
2019-03-19T07:16:52.483Z,1015.8
2019-03-19T07:17:54.612Z,1015.8
2019-03-19T07:18:56.781Z,1015.7
2019-03-19T07:19:58.935Z,1015.7
2019-03-19T07:21:01.057Z,1015.7
2019-03-19T07:22:03.166Z,1015.8
2019-03-19T07:23:05.886Z,1015.7
2019-03-19T07:24:08.419Z,1015.7
2019-03-19T07:25:10.545Z,1015.7
2019-03-19T07:26:13.083Z,1015.7
2019-03-19T07:27:15.201Z,1015.7
2019-03-19T07:28:22.650Z,1015.7
2019-03-19T07:29:25.082Z,1015.8
2019-03-19T07:30:27.535Z,1015.7
2019-03-19T07:31:31.503Z,1015.8
2019-03-19T07:32:33.627Z,1015.8
2019-03-19T07:33:35.753Z,1015.8
2019-03-19T07:34:38.243Z,1015.8
2019-03-19T07:35:40.658Z,1015.7
2019-03-19T07:36:42.779Z,1015.7
2019-03-19T07:37:44.914Z,1015.8
2019-03-19T07:38:47.049Z,1015.8
2019-03-19T07:39:49.257Z,1015.7
2019-03-19T07:40:51.367Z,1015.8
2019-03-19T07:41:53.795Z,1015.8
2019-03-19T07:42:55.927Z,1015.8
2019-03-19T07:43:58.416Z,1015.8
2019-03-19T07:45:00.660Z,1015.8
2019-03-19T07:46:02.782Z,1015.8
2019-03-19T07:47:04.904Z,1015.8
2019-03-19T07:48:07.015Z,1015.9
2019-03-19T07:49:09.441Z,1015.9
2019-03-19T07:50:11.566Z,1016
2019-03-19T07:51:13.738Z,1015.9
2019-03-19T07:52:15.842Z,1016
2019-03-19T07:53:17.974Z,1016
2019-03-19T07:54:20.393Z,1016
2019-03-19T07:55:22.507Z,1016
2019-03-19T07:56:24.916Z,1016
2019-03-19T07:57:29.360Z,1016
2019-03-19T07:58:45.729Z,1016
2019-03-19T07:59:47.962Z,1016
2019-03-19T08:00:50.086Z,1016
2019-03-19T08:01:52.470Z,1016
2019-03-19T08:02:54.597Z,1016
2019-03-19T08:03:56.728Z,1016
2019-03-19T08:04:58.826Z,1016.1
2019-03-19T08:06:01.250Z,1016.1
2019-03-19T08:07:03.384Z,1016.1
2019-03-19T08:08:05.512Z,1016.1
2019-03-19T08:09:08.053Z,1016.1
2019-03-19T08:10:10.280Z,1016.1
2019-03-19T08:11:13.444Z,1016.1
2019-03-19T08:12:18.243Z,1016.2
2019-03-19T08:13:20.375Z,1016.2
2019-03-19T08:14:22.507Z,1016.1
2019-03-19T08:15:24.664Z,1016.2
2019-03-19T08:16:28.005Z,1016.1
2019-03-19T08:17:30.116Z,1016.2
2019-03-19T08:18:32.260Z,1016.2
2019-03-19T08:19:34.383Z,1016.2
2019-03-19T08:20:36.507Z,1016.2
2019-03-19T08:21:38.619Z,1016.1
2019-03-19T08:22:40.748Z,1016.2
2019-03-19T08:23:42.875Z,1016.2
2019-03-19T08:24:44.986Z,1016.2
2019-03-19T08:25:47.128Z,1016.2
2019-03-19T08:26:49.526Z,1016.2
2019-03-19T08:27:51.957Z,1016.3
2019-03-19T08:28:55.893Z,1016.3
2019-03-19T08:29:58.027Z,1016.3
2019-03-19T08:31:00.153Z,1016.3
2019-03-19T08:32:02.264Z,1016.3
2019-03-19T08:33:04.397Z,1016.4
2019-03-19T08:34:06.826Z,1016.3
2019-03-19T08:35:08.947Z,1016.3
2019-03-19T08:36:11.081Z,1016.3
2019-03-19T08:37:15.429Z,1016.4
2019-03-19T08:38:17.683Z,1016.3
2019-03-19T08:39:21.076Z,1016.4
2019-03-19T08:40:23.225Z,1016.4
2019-03-19T08:41:25.350Z,1016.4
2019-03-19T08:42:27.493Z,1016.5
2019-03-19T08:43:29.683Z,1016.5
2019-03-19T08:44:31.808Z,1016.5
2019-03-19T08:45:34.307Z,1016.5
2019-03-19T08:46:36.736Z,1016.5
2019-03-19T08:47:38.842Z,1016.6
2019-03-19T08:48:41.237Z,1016.5
2019-03-19T08:49:43.666Z,1016.5
2019-03-19T08:50:45.769Z,1016.5
2019-03-19T08:51:48.287Z,1016.5
2019-03-19T08:52:50.405Z,1016.5
2019-03-19T08:53:52.815Z,1016.6
2019-03-19T08:54:54.925Z,1016.6
2019-03-19T08:55:57.055Z,1016.5
2019-03-19T08:56:59.489Z,1016.6
2019-03-19T08:58:01.601Z,1016.5
2019-03-19T08:59:06.452Z,1016.6
2019-03-19T09:00:08.591Z,1016.6
2019-03-19T09:01:10.708Z,1016.7
2019-03-19T09:02:12.849Z,1016.6
2019-03-19T09:03:15.016Z,1016.7
2019-03-19T09:04:17.409Z,1016.7
2019-03-19T09:05:19.535Z,1016.7
2019-03-19T09:06:21.684Z,1016.7
2019-03-19T09:07:23.798Z,1016.8
2019-03-19T09:08:25.928Z,1016.7
2019-03-19T09:09:28.052Z,1016.8
2019-03-19T09:10:30.187Z,1016.7
2019-03-19T09:11:32.580Z,1016.7
2019-03-19T09:12:34.700Z,1016.8
2019-03-19T09:13:36.827Z,1016.7
2019-03-19T09:14:38.939Z,1016.8
2019-03-19T09:15:42.813Z,1016.7
2019-03-19T09:16:44.936Z,1016.7
2019-03-19T09:17:47.082Z,1016.7
2019-03-19T09:18:49.793Z,1016.8
2019-03-19T09:19:51.936Z,1016.8
2019-03-19T09:20:54.385Z,1016.8
2019-03-19T09:21:56.803Z,1016.8
2019-03-19T09:22:58.938Z,1016.8
2019-03-19T09:24:01.057Z,1016.8
2019-03-19T09:25:03.486Z,1016.8
2019-03-19T09:26:06.199Z,1016.9
2019-03-19T09:27:08.364Z,1016.8
2019-03-19T09:28:10.466Z,1016.8
2019-03-19T09:29:17.453Z,1016.8
2019-03-19T09:30:19.916Z,1016.8
2019-03-19T09:31:22.323Z,1016.9
2019-03-19T09:32:24.766Z,1016.9
2019-03-19T09:33:26.876Z,1016.9
2019-03-19T09:34:28.994Z,1016.8
2019-03-19T09:35:31.524Z,1016.9
2019-03-19T09:36:33.647Z,1017
2019-03-19T09:37:36.156Z,1016.8
2019-03-19T09:38:45.394Z,1016.9
2019-03-19T09:39:47.509Z,1016.9
2019-03-19T09:40:49.634Z,1017
2019-03-19T09:41:51.779Z,1017
2019-03-19T09:42:53.911Z,1017
2019-03-19T09:43:56.026Z,1017
2019-03-19T09:44:59.053Z,1017
2019-03-19T09:46:01.853Z,1017
2019-03-19T09:47:03.966Z,1017
2019-03-19T09:48:06.101Z,1017
2019-03-19T09:49:08.218Z,1017
2019-03-19T09:50:10.365Z,1017.1
2019-03-19T09:51:12.488Z,1017
2019-03-19T09:52:14.651Z,1017.1
2019-03-19T09:53:19.049Z,1017.1
2019-03-19T09:54:21.201Z,1017.1
2019-03-19T09:55:23.335Z,1017.1
2019-03-19T09:56:25.742Z,1017.1
2019-03-19T09:57:27.879Z,1017.1
2019-03-19T09:58:29.991Z,1017.1
2019-03-19T09:59:32.129Z,1017.1
2019-03-19T10:00:34.244Z,1017.1
2019-03-19T10:01:36.672Z,1017.1
2019-03-19T10:02:39.097Z,1017.1
2019-03-19T10:03:41.243Z,1017.2
2019-03-19T10:04:43.384Z,1017.2
2019-03-19T10:05:45.499Z,1017.1
2019-03-19T10:06:47.625Z,1017.2
2019-03-19T10:07:50.466Z,1017.2
2019-03-19T10:08:52.998Z,1017.1
2019-03-19T10:09:55.144Z,1017.1
2019-03-19T10:10:57.323Z,1017.2
2019-03-19T10:11:59.446Z,1017.2
2019-03-19T10:13:01.667Z,1017.2
2019-03-19T10:14:04.082Z,1017.2
2019-03-19T10:15:06.216Z,1017.2
2019-03-19T10:16:08.340Z,1017.2
2019-03-19T10:17:10.479Z,1017.2
2019-03-19T10:18:12.880Z,1017.2
2019-03-19T10:19:15.012Z,1017.3
2019-03-19T10:20:18.454Z,1017.3
2019-03-19T10:21:20.620Z,1017.3
2019-03-19T10:22:22.739Z,1017.3
2019-03-19T10:23:24.928Z,1017.3
2019-03-19T10:24:27.064Z,1017.3
2019-03-19T10:25:29.486Z,1017.3
2019-03-19T10:26:31.620Z,1017.3
2019-03-19T10:27:34.063Z,1017.4
2019-03-19T10:28:36.197Z,1017.4
2019-03-19T10:29:39.079Z,1017.4
2019-03-19T10:30:41.226Z,1017.4
2019-03-19T10:31:43.351Z,1017.5
2019-03-19T10:32:45.755Z,1017.5
2019-03-19T10:33:47.901Z,1017.5
2019-03-19T10:34:50.222Z,1017.5
2019-03-19T10:35:52.265Z,1017.5
2019-03-19T10:36:54.314Z,1017.5
2019-03-19T10:37:56.360Z,1017.6
2019-03-19T10:38:58.388Z,1017.5
2019-03-19T10:40:00.630Z,1017.5
2019-03-19T10:41:02.721Z,1017.5
2019-03-19T10:42:05.167Z,1017.5
2019-03-19T10:43:07.485Z,1017.5
2019-03-19T10:44:09.841Z,1017.6
2019-03-19T10:45:11.886Z,1017.5
2019-03-19T10:46:15.211Z,1017.5
2019-03-19T10:47:17.254Z,1017.6
2019-03-19T10:48:19.296Z,1017.7
2019-03-19T10:49:21.473Z,1017.6
2019-03-19T10:50:23.516Z,1017.6
2019-03-19T10:51:25.722Z,1017.6
2019-03-19T10:52:28.095Z,1017.6
2019-03-19T10:53:30.446Z,1017.7
2019-03-19T10:54:32.477Z,1017.6
2019-03-19T10:55:34.614Z,1017.7
2019-03-19T10:56:39.203Z,1017.7
2019-03-19T10:57:41.569Z,1017.7
2019-03-19T10:58:43.989Z,1017.6
2019-03-19T10:59:49.700Z,1017.7
2019-03-19T11:00:51.752Z,1017.7
2019-03-19T11:01:54.198Z,1017.7
2019-03-19T11:02:56.509Z,1017.7
2019-03-19T11:03:58.639Z,1017.7
2019-03-19T11:05:00.842Z,1017.7
2019-03-19T11:06:03.184Z,1017.7
2019-03-19T11:07:05.224Z,1017.7
2019-03-19T11:08:07.276Z,1017.7
2019-03-19T11:09:09.632Z,1017.7
2019-03-19T11:10:11.690Z,1017.7
2019-03-19T11:11:13.735Z,1017.7
2019-03-19T11:12:16.099Z,1017.8
2019-03-19T11:13:18.444Z,1017.7
2019-03-19T11:14:20.506Z,1017.7
2019-03-19T11:15:22.541Z,1017.7
2019-03-19T11:16:24.670Z,1017.7
2019-03-19T11:17:28.732Z,1017.7
2019-03-19T11:18:30.877Z,1017.8
2019-03-19T11:19:32.937Z,1017.7
2019-03-19T11:20:34.994Z,1017.8
2019-03-19T11:21:37.082Z,1017.8
2019-03-19T11:22:39.438Z,1017.8
2019-03-19T11:23:41.521Z,1017.8
2019-03-19T11:24:43.560Z,1017.8
2019-03-19T11:25:54.876Z,1017.8
2019-03-19T11:26:57.003Z,1017.8
2019-03-19T11:27:59.076Z,1017.8
2019-03-19T11:29:01.218Z,1017.8
2019-03-19T11:30:03.272Z,1017.9
2019-03-19T11:31:08.201Z,1017.9
2019-03-19T11:32:10.369Z,1017.9
2019-03-19T11:33:12.417Z,1017.9
2019-03-19T11:34:14.508Z,1017.9
2019-03-19T11:35:16.574Z,1018
2019-03-19T11:36:18.650Z,1018
2019-03-19T11:37:20.734Z,1017.9
2019-03-19T11:38:22.774Z,1017.9
2019-03-19T11:39:24.886Z,1017.9
2019-03-19T11:40:26.951Z,1017.9
2019-03-19T11:41:29.015Z,1017.9
2019-03-19T11:42:31.382Z,1017.9
2019-03-19T11:43:33.429Z,1018
2019-03-19T11:44:35.946Z,1017.9
2019-03-19T11:45:38.001Z,1017.9
2019-03-19T11:46:40.053Z,1018
2019-03-19T11:47:42.091Z,1018
2019-03-19T11:48:44.132Z,1018
2019-03-19T11:49:46.308Z,1018
2019-03-19T11:50:48.691Z,1018
2019-03-19T11:51:50.794Z,1018
2019-03-19T11:52:52.853Z,1018
2019-03-19T11:53:54.933Z,1018
2019-03-19T11:54:56.974Z,1018
2019-03-19T11:55:59.055Z,1018.1
2019-03-19T11:57:01.136Z,1018.1
2019-03-19T11:58:03.837Z,1018.1
2019-03-19T11:59:06.211Z,1018.1
2019-03-19T12:00:11.917Z,1018.2
2019-03-19T12:01:14.248Z,1018.2
2019-03-19T12:02:26.495Z,1018.2
2019-03-19T12:03:28.585Z,1018.2
2019-03-19T12:04:30.968Z,1018.2
2019-03-19T12:05:33.010Z,1018.2
2019-03-19T12:06:35.092Z,1018.2
2019-03-19T12:07:37.131Z,1018.2
2019-03-19T12:08:39.865Z,1018.2
2019-03-19T12:09:41.920Z,1018.2
2019-03-19T12:10:43.957Z,1018.2
2019-03-19T12:11:46.012Z,1018.2
2019-03-19T12:12:48.055Z,1018.2
2019-03-19T12:13:50.097Z,1018.2
2019-03-19T12:14:52.129Z,1018.3
2019-03-19T12:15:54.181Z,1018.3
2019-03-19T12:16:56.225Z,1018.2
2019-03-19T12:17:58.270Z,1018.2
2019-03-19T12:19:00.333Z,1018.2
2019-03-19T12:20:02.652Z,1018.3
2019-03-19T12:21:05.365Z,1018.3
2019-03-19T12:22:07.406Z,1018.3
2019-03-19T12:23:09.454Z,1018.3
2019-03-19T12:24:11.792Z,1018.3
2019-03-19T12:25:13.887Z,1018.4
2019-03-19T12:26:15.924Z,1018.3
2019-03-19T12:27:17.969Z,1018.3
2019-03-19T12:28:20.029Z,1018.3
2019-03-19T12:29:22.133Z,1018.3
2019-03-19T12:30:26.748Z,1018.3
2019-03-19T12:31:29.089Z,1018.4
2019-03-19T12:32:31.131Z,1018.4
2019-03-19T12:33:41.607Z,1018.3
2019-03-19T12:34:44.041Z,1018.3
2019-03-19T12:35:46.075Z,1018.4
2019-03-19T12:36:48.147Z,1018.4
2019-03-19T12:37:50.195Z,1018.5
2019-03-19T12:38:52.263Z,1018.4
2019-03-19T12:39:54.305Z,1018.5
2019-03-19T12:40:56.366Z,1018.5
2019-03-19T12:41:58.415Z,1018.5
2019-03-19T12:43:00.847Z,1018.5
2019-03-19T12:44:02.912Z,1018.5
2019-03-19T12:45:05.218Z,1018.5
2019-03-19T12:46:07.262Z,1018.5
2019-03-19T12:47:09.305Z,1018.5
2019-03-19T12:48:11.360Z,1018.5
2019-03-19T12:49:13.402Z,1018.6
2019-03-19T12:50:15.455Z,1018.5
2019-03-19T12:51:17.501Z,1018.5
2019-03-19T12:52:19.534Z,1018.5
2019-03-19T12:53:21.568Z,1018.4
2019-03-19T12:54:23.615Z,1018.5
2019-03-19T12:55:25.659Z,1018.4
2019-03-19T12:56:27.705Z,1018.5
2019-03-19T12:57:30.026Z,1018.4
2019-03-19T12:58:32.071Z,1018.4
2019-03-19T12:59:34.106Z,1018.5
2019-03-19T13:00:36.441Z,1018.5
2019-03-19T13:01:38.761Z,1018.5
2019-03-19T13:02:40.897Z,1018.5
2019-03-19T13:03:42.939Z,1018.4
2019-03-19T13:04:45.274Z,1018.4